sensor_id;sensor_type;location;lat;lon;timestamp;P1;durP1;ratioP1;P2;durP2;ratioP2
5333;SDS011;2689;50.954;7.116;2024-01-06T00:02:20;4.63;;;3.40;;
5333;SDS011;2689;50.954;7.116;2024-01-06T00:04:49;6.90;;;4.60;;
5333;SDS011;2689;50.954;7.116;2024-01-06T00:07:32;6.03;;;4.90;;
5333;SDS011;2689;50.954;7.116;2024-01-06T00:10:05;6.00;;;3.73;;
5333;SDS011;2689;50.954;7.116;2024-01-06T00:12:59;4.10;;;3.80;;
5333;SDS011;2689;50.954;7.116;2024-01-06T00:15:42;4.47;;;3.90;;
5333;SDS011;2689;50.954;7.116;2024-01-06T00:18:12;9.83;;;4.90;;
5333;SDS011;2689;50.954;7.116;2024-01-06T00:20:41;6.13;;;4.33;;
5333;SDS011;2689;50.954;7.116;2024-01-06T00:23:09;6.10;;;4.93;;
5333;SDS011;2689;50.954;7.116;2024-01-06T00:25:36;5.27;;;4.53;;
5333;SDS011;2689;50.954;7.116;2024-01-06T00:28:03;6.83;;;4.60;;
5333;SDS011;2689;50.954;7.116;2024-01-06T00:30:30;5.37;;;4.77;;
5333;SDS011;2689;50.954;7.116;2024-01-06T00:32:58;8.27;;;4.57;;
5333;SDS011;2689;50.954;7.116;2024-01-06T00:35:27;9.93;;;4.73;;
5333;SDS011;2689;50.954;7.116;2024-01-06T00:37:55;5.43;;;4.70;;
5333;SDS011;2689;50.954;7.116;2024-01-06T00:40:24;5.63;;;4.93;;
5333;SDS011;2689;50.954;7.116;2024-01-06T00:42:51;7.20;;;5.53;;
5333;SDS011;2689;50.954;7.116;2024-01-06T00:45:18;7.37;;;5.10;;
5333;SDS011;2689;50.954;7.116;2024-01-06T00:47:46;5.83;;;5.23;;
5333;SDS011;2689;50.954;7.116;2024-01-06T00:50:27;9.07;;;6.10;;
5333;SDS011;2689;50.954;7.116;2024-01-06T00:52:56;6.83;;;5.50;;
5333;SDS011;2689;50.954;7.116;2024-01-06T00:55:22;10.93;;;6.40;;
5333;SDS011;2689;50.954;7.116;2024-01-06T00:57:49;9.67;;;6.37;;
5333;SDS011;2689;50.954;7.116;2024-01-06T01:00:18;6.73;;;6.00;;
5333;SDS011;2689;50.954;7.116;2024-01-06T01:02:45;8.50;;;6.33;;
5333;SDS011;2689;50.954;7.116;2024-01-06T01:05:12;9.43;;;7.07;;
5333;SDS011;2689;50.954;7.116;2024-01-06T01:07:39;11.17;;;7.17;;
5333;SDS011;2689;50.954;7.116;2024-01-06T01:10:07;7.83;;;7.03;;
5333;SDS011;2689;50.954;7.116;2024-01-06T01:12:34;8.13;;;6.40;;
5333;SDS011;2689;50.954;7.116;2024-01-06T01:15:01;9.90;;;7.40;;
5333;SDS011;2689;50.954;7.116;2024-01-06T01:17:28;11.73;;;7.80;;
5333;SDS011;2689;50.954;7.116;2024-01-06T01:19:55;11.10;;;7.30;;
5333;SDS011;2689;50.954;7.116;2024-01-06T01:22:22;10.30;;;7.20;;
5333;SDS011;2689;50.954;7.116;2024-01-06T01:24:49;8.60;;;7.20;;
5333;SDS011;2689;50.954;7.116;2024-01-06T01:27:17;12.50;;;7.40;;
5333;SDS011;2689;50.954;7.116;2024-01-06T01:29:44;10.43;;;8.03;;
5333;SDS011;2689;50.954;7.116;2024-01-06T01:32:09;9.33;;;6.97;;
5333;SDS011;2689;50.954;7.116;2024-01-06T01:34:36;7.63;;;6.77;;
5333;SDS011;2689;50.954;7.116;2024-01-06T01:37:03;10.03;;;7.90;;
5333;SDS011;2689;50.954;7.116;2024-01-06T01:39:30;11.33;;;8.30;;
5333;SDS011;2689;50.954;7.116;2024-01-06T01:41:56;9.20;;;8.07;;
5333;SDS011;2689;50.954;7.116;2024-01-06T01:44:24;11.13;;;8.70;;
5333;SDS011;2689;50.954;7.116;2024-01-06T01:46:51;14.60;;;8.87;;
5333;SDS011;2689;50.954;7.116;2024-01-06T01:49:18;11.63;;;7.70;;
5333;SDS011;2689;50.954;7.116;2024-01-06T01:51:45;10.60;;;9.40;;
5333;SDS011;2689;50.954;7.116;2024-01-06T01:54:12;12.50;;;9.20;;
5333;SDS011;2689;50.954;7.116;2024-01-06T01:56:40;11.03;;;9.40;;
5333;SDS011;2689;50.954;7.116;2024-01-06T01:59:09;11.10;;;9.77;;
5333;SDS011;2689;50.954;7.116;2024-01-06T02:01:38;10.20;;;8.97;;
5333;SDS011;2689;50.954;7.116;2024-01-06T02:04:06;10.50;;;9.50;;
5333;SDS011;2689;50.954;7.116;2024-01-06T02:06:33;11.80;;;9.33;;
5333;SDS011;2689;50.954;7.116;2024-01-06T02:09:00;11.07;;;9.60;;
5333;SDS011;2689;50.954;7.116;2024-01-06T02:11:27;9.83;;;8.10;;
5333;SDS011;2689;50.954;7.116;2024-01-06T02:13:55;9.83;;;8.83;;
5333;SDS011;2689;50.954;7.116;2024-01-06T02:16:22;13.67;;;9.97;;
5333;SDS011;2689;50.954;7.116;2024-01-06T02:18:50;12.07;;;10.03;;
5333;SDS011;2689;50.954;7.116;2024-01-06T02:21:17;10.57;;;9.47;;
5333;SDS011;2689;50.954;7.116;2024-01-06T02:23:45;12.10;;;10.07;;
5333;SDS011;2689;50.954;7.116;2024-01-06T02:26:12;9.63;;;8.63;;
5333;SDS011;2689;50.954;7.116;2024-01-06T02:28:40;12.63;;;10.10;;
5333;SDS011;2689;50.954;7.116;2024-01-06T02:31:06;12.00;;;10.20;;
5333;SDS011;2689;50.954;7.116;2024-01-06T02:33:33;16.67;;;9.30;;
5333;SDS011;2689;50.954;7.116;2024-01-06T02:36:00;13.10;;;9.23;;
5333;SDS011;2689;50.954;7.116;2024-01-06T02:38:26;12.00;;;9.63;;
5333;SDS011;2689;50.954;7.116;2024-01-06T02:40:54;12.27;;;10.30;;
5333;SDS011;2689;50.954;7.116;2024-01-06T02:43:22;12.87;;;9.77;;
5333;SDS011;2689;50.954;7.116;2024-01-06T02:45:49;11.30;;;9.80;;
5333;SDS011;2689;50.954;7.116;2024-01-06T02:48:15;11.97;;;9.27;;
5333;SDS011;2689;50.954;7.116;2024-01-06T02:50:42;10.97;;;9.83;;
5333;SDS011;2689;50.954;7.116;2024-01-06T02:53:09;11.83;;;9.27;;
5333;SDS011;2689;50.954;7.116;2024-01-06T02:55:37;11.07;;;9.30;;
5333;SDS011;2689;50.954;7.116;2024-01-06T02:58:05;10.73;;;9.70;;
5333;SDS011;2689;50.954;7.116;2024-01-06T03:00:32;10.77;;;9.43;;
5333;SDS011;2689;50.954;7.116;2024-01-06T03:02:59;10.60;;;9.10;;
5333;SDS011;2689;50.954;7.116;2024-01-06T03:05:25;11.73;;;9.73;;
5333;SDS011;2689;50.954;7.116;2024-01-06T03:07:52;11.80;;;10.47;;
5333;SDS011;2689;50.954;7.116;2024-01-06T03:10:19;12.53;;;10.10;;
5333;SDS011;2689;50.954;7.116;2024-01-06T03:12:45;11.37;;;9.63;;
5333;SDS011;2689;50.954;7.116;2024-01-06T03:15:14;12.27;;;9.93;;
5333;SDS011;2689;50.954;7.116;2024-01-06T03:17:40;12.10;;;10.80;;
5333;SDS011;2689;50.954;7.116;2024-01-06T03:20:07;13.03;;;11.67;;
5333;SDS011;2689;50.954;7.116;2024-01-06T03:22:35;13.17;;;10.50;;
5333;SDS011;2689;50.954;7.116;2024-01-06T03:25:02;13.70;;;10.10;;
5333;SDS011;2689;50.954;7.116;2024-01-06T03:27:29;11.53;;;10.30;;
5333;SDS011;2689;50.954;7.116;2024-01-06T03:29:55;12.67;;;9.73;;
5333;SDS011;2689;50.954;7.116;2024-01-06T03:32:24;12.13;;;10.53;;
5333;SDS011;2689;50.954;7.116;2024-01-06T03:34:50;12.37;;;10.90;;
5333;SDS011;2689;50.954;7.116;2024-01-06T03:37:17;15.13;;;10.87;;
5333;SDS011;2689;50.954;7.116;2024-01-06T03:39:44;14.97;;;10.90;;
5333;SDS011;2689;50.954;7.116;2024-01-06T03:42:11;13.97;;;10.73;;
5333;SDS011;2689;50.954;7.116;2024-01-06T03:44:37;13.40;;;10.70;;
5333;SDS011;2689;50.954;7.116;2024-01-06T03:47:04;10.93;;;9.73;;
5333;SDS011;2689;50.954;7.116;2024-01-06T03:49:35;13.70;;;10.97;;
5333;SDS011;2689;50.954;7.116;2024-01-06T03:52:02;15.33;;;10.60;;
5333;SDS011;2689;50.954;7.116;2024-01-06T03:54:29;20.37;;;11.53;;
5333;SDS011;2689;50.954;7.116;2024-01-06T03:56:56;12.20;;;10.63;;
5333;SDS011;2689;50.954;7.116;2024-01-06T03:59:22;13.17;;;10.10;;
5333;SDS011;2689;50.954;7.116;2024-01-06T04:01:49;15.77;;;11.70;;
5333;SDS011;2689;50.954;7.116;2024-01-06T04:04:16;14.80;;;11.60;;
5333;SDS011;2689;50.954;7.116;2024-01-06T04:06:44;13.93;;;11.10;;
5333;SDS011;2689;50.954;7.116;2024-01-06T04:09:10;15.00;;;11.90;;
5333;SDS011;2689;50.954;7.116;2024-01-06T04:11:37;15.23;;;11.97;;
5333;SDS011;2689;50.954;7.116;2024-01-06T04:14:04;18.80;;;12.30;;
5333;SDS011;2689;50.954;7.116;2024-01-06T04:16:31;12.67;;;10.13;;
5333;SDS011;2689;50.954;7.116;2024-01-06T04:18:57;14.50;;;11.87;;
5333;SDS011;2689;50.954;7.116;2024-01-06T04:21:24;15.70;;;11.50;;
5333;SDS011;2689;50.954;7.116;2024-01-06T04:23:52;15.10;;;11.47;;
5333;SDS011;2689;50.954;7.116;2024-01-06T04:26:21;18.93;;;13.77;;
5333;SDS011;2689;50.954;7.116;2024-01-06T04:28:47;16.70;;;12.23;;
5333;SDS011;2689;50.954;7.116;2024-01-06T04:31:14;16.60;;;13.17;;
5333;SDS011;2689;50.954;7.116;2024-01-06T04:33:41;16.27;;;13.83;;
5333;SDS011;2689;50.954;7.116;2024-01-06T04:36:07;22.13;;;14.90;;
5333;SDS011;2689;50.954;7.116;2024-01-06T04:38:34;17.20;;;14.07;;
5333;SDS011;2689;50.954;7.116;2024-01-06T04:41:02;20.67;;;14.33;;
5333;SDS011;2689;50.954;7.116;2024-01-06T04:43:29;18.80;;;14.70;;
5333;SDS011;2689;50.954;7.116;2024-01-06T04:45:56;20.17;;;14.00;;
5333;SDS011;2689;50.954;7.116;2024-01-06T04:48:23;22.73;;;15.20;;
5333;SDS011;2689;50.954;7.116;2024-01-06T04:50:50;19.97;;;15.13;;
5333;SDS011;2689;50.954;7.116;2024-01-06T04:53:16;24.60;;;16.87;;
5333;SDS011;2689;50.954;7.116;2024-01-06T04:55:43;19.17;;;14.30;;
5333;SDS011;2689;50.954;7.116;2024-01-06T04:58:11;20.57;;;14.80;;
5333;SDS011;2689;50.954;7.116;2024-01-06T05:00:38;21.20;;;15.07;;
5333;SDS011;2689;50.954;7.116;2024-01-06T05:03:05;20.77;;;14.90;;
5333;SDS011;2689;50.954;7.116;2024-01-06T05:05:31;23.90;;;16.63;;
5333;SDS011;2689;50.954;7.116;2024-01-06T05:07:58;24.53;;;17.50;;
5333;SDS011;2689;50.954;7.116;2024-01-06T05:10:25;29.43;;;17.67;;
5333;SDS011;2689;50.954;7.116;2024-01-06T05:12:52;25.90;;;17.07;;
5333;SDS011;2689;50.954;7.116;2024-01-06T05:15:20;23.60;;;15.90;;
5333;SDS011;2689;50.954;7.116;2024-01-06T05:17:47;23.03;;;17.17;;
5333;SDS011;2689;50.954;7.116;2024-01-06T05:20:14;28.23;;;19.03;;
5333;SDS011;2689;50.954;7.116;2024-01-06T05:22:40;24.73;;;19.03;;
5333;SDS011;2689;50.954;7.116;2024-01-06T05:25:07;27.47;;;18.83;;
5333;SDS011;2689;50.954;7.116;2024-01-06T05:27:35;29.00;;;18.73;;
5333;SDS011;2689;50.954;7.116;2024-01-06T05:30:02;28.47;;;20.87;;
5333;SDS011;2689;50.954;7.116;2024-01-06T05:32:30;29.47;;;20.57;;
5333;SDS011;2689;50.954;7.116;2024-01-06T05:34:57;29.63;;;21.70;;
5333;SDS011;2689;50.954;7.116;2024-01-06T05:37:24;34.60;;;20.33;;
5333;SDS011;2689;50.954;7.116;2024-01-06T05:39:51;31.70;;;20.77;;
5333;SDS011;2689;50.954;7.116;2024-01-06T05:42:19;34.43;;;21.13;;
5333;SDS011;2689;50.954;7.116;2024-01-06T05:44:48;33.60;;;21.93;;
5333;SDS011;2689;50.954;7.116;2024-01-06T05:47:15;33.90;;;21.07;;
5333;SDS011;2689;50.954;7.116;2024-01-06T05:49:43;20.67;;;14.17;;
5333;SDS011;2689;50.954;7.116;2024-01-06T05:52:10;23.80;;;16.20;;
5333;SDS011;2689;50.954;7.116;2024-01-06T05:54:41;28.23;;;18.20;;
5333;SDS011;2689;50.954;7.116;2024-01-06T05:57:08;26.77;;;16.63;;
5333;SDS011;2689;50.954;7.116;2024-01-06T05:59:35;23.77;;;15.00;;
5333;SDS011;2689;50.954;7.116;2024-01-06T06:02:02;21.83;;;14.07;;
5333;SDS011;2689;50.954;7.116;2024-01-06T06:04:29;23.50;;;15.80;;
5333;SDS011;2689;50.954;7.116;2024-01-06T06:06:57;23.57;;;14.27;;
5333;SDS011;2689;50.954;7.116;2024-01-06T06:09:27;20.90;;;14.03;;
5333;SDS011;2689;50.954;7.116;2024-01-06T06:11:54;16.30;;;11.90;;
5333;SDS011;2689;50.954;7.116;2024-01-06T06:14:21;14.70;;;9.80;;
5333;SDS011;2689;50.954;7.116;2024-01-06T06:16:48;19.47;;;12.03;;
5333;SDS011;2689;50.954;7.116;2024-01-06T06:19:15;22.07;;;13.27;;
5333;SDS011;2689;50.954;7.116;2024-01-06T06:21:45;20.87;;;12.40;;
5333;SDS011;2689;50.954;7.116;2024-01-06T06:24:13;19.20;;;12.43;;
5333;SDS011;2689;50.954;7.116;2024-01-06T06:26:40;16.33;;;10.60;;
5333;SDS011;2689;50.954;7.116;2024-01-06T06:29:07;15.80;;;10.20;;
5333;SDS011;2689;50.954;7.116;2024-01-06T06:31:34;15.23;;;9.33;;
5333;SDS011;2689;50.954;7.116;2024-01-06T06:34:01;17.63;;;9.47;;
5333;SDS011;2689;50.954;7.116;2024-01-06T06:36:27;15.93;;;10.37;;
5333;SDS011;2689;50.954;7.116;2024-01-06T06:38:55;14.43;;;9.10;;
5333;SDS011;2689;50.954;7.116;2024-01-06T06:41:26;15.90;;;9.97;;
5333;SDS011;2689;50.954;7.116;2024-01-06T06:44:08;14.90;;;9.50;;
5333;SDS011;2689;50.954;7.116;2024-01-06T06:46:35;14.87;;;9.20;;
5333;SDS011;2689;50.954;7.116;2024-01-06T06:49:04;15.07;;;9.87;;
5333;SDS011;2689;50.954;7.116;2024-01-06T06:51:31;17.30;;;9.43;;
5333;SDS011;2689;50.954;7.116;2024-01-06T06:53:57;13.10;;;8.40;;
5333;SDS011;2689;50.954;7.116;2024-01-06T06:56:28;11.77;;;8.50;;
5333;SDS011;2689;50.954;7.116;2024-01-06T06:58:54;10.80;;;7.43;;
5333;SDS011;2689;50.954;7.116;2024-01-06T07:01:21;12.30;;;8.43;;
5333;SDS011;2689;50.954;7.116;2024-01-06T07:03:48;12.27;;;7.77;;
5333;SDS011;2689;50.954;7.116;2024-01-06T07:06:15;14.53;;;8.13;;
5333;SDS011;2689;50.954;7.116;2024-01-06T07:08:42;13.17;;;7.57;;
5333;SDS011;2689;50.954;7.116;2024-01-06T07:11:13;10.83;;;7.70;;
5333;SDS011;2689;50.954;7.116;2024-01-06T07:13:44;13.30;;;8.73;;
5333;SDS011;2689;50.954;7.116;2024-01-06T07:16:11;11.13;;;7.20;;
5333;SDS011;2689;50.954;7.116;2024-01-06T07:18:38;15.07;;;9.10;;
5333;SDS011;2689;50.954;7.116;2024-01-06T07:21:05;11.27;;;7.80;;
5333;SDS011;2689;50.954;7.116;2024-01-06T07:23:32;11.50;;;7.27;;
5333;SDS011;2689;50.954;7.116;2024-01-06T07:25:59;12.00;;;8.57;;
5333;SDS011;2689;50.954;7.116;2024-01-06T07:28:26;13.00;;;8.10;;
5333;SDS011;2689;50.954;7.116;2024-01-06T07:30:55;11.57;;;8.10;;
5333;SDS011;2689;50.954;7.116;2024-01-06T07:33:22;13.50;;;8.43;;
5333;SDS011;2689;50.954;7.116;2024-01-06T07:35:50;15.23;;;8.93;;
5333;SDS011;2689;50.954;7.116;2024-01-06T07:38:16;14.43;;;9.77;;
5333;SDS011;2689;50.954;7.116;2024-01-06T07:40:47;13.03;;;8.93;;
5333;SDS011;2689;50.954;7.116;2024-01-06T07:43:14;17.17;;;9.27;;
5333;SDS011;2689;50.954;7.116;2024-01-06T07:45:41;12.20;;;8.37;;
5333;SDS011;2689;50.954;7.116;2024-01-06T07:48:09;15.03;;;10.33;;
5333;SDS011;2689;50.954;7.116;2024-01-06T07:50:36;14.73;;;9.60;;
5333;SDS011;2689;50.954;7.116;2024-01-06T07:53:03;18.83;;;11.47;;
5333;SDS011;2689;50.954;7.116;2024-01-06T07:55:30;15.03;;;9.37;;
5333;SDS011;2689;50.954;7.116;2024-01-06T07:57:57;17.40;;;11.07;;
5333;SDS011;2689;50.954;7.116;2024-01-06T08:00:24;17.90;;;12.20;;
5333;SDS011;2689;50.954;7.116;2024-01-06T08:02:51;17.47;;;11.10;;
5333;SDS011;2689;50.954;7.116;2024-01-06T08:05:19;17.93;;;11.30;;
5333;SDS011;2689;50.954;7.116;2024-01-06T08:07:46;16.77;;;10.27;;
5333;SDS011;2689;50.954;7.116;2024-01-06T08:10:14;16.93;;;11.37;;
5333;SDS011;2689;50.954;7.116;2024-01-06T08:12:41;16.60;;;10.80;;
5333;SDS011;2689;50.954;7.116;2024-01-06T08:15:09;15.10;;;10.00;;
5333;SDS011;2689;50.954;7.116;2024-01-06T08:17:36;17.60;;;11.53;;
5333;SDS011;2689;50.954;7.116;2024-01-06T08:20:05;18.83;;;12.07;;
5333;SDS011;2689;50.954;7.116;2024-01-06T08:22:35;19.07;;;12.53;;
5333;SDS011;2689;50.954;7.116;2024-01-06T08:25:03;18.43;;;11.57;;
5333;SDS011;2689;50.954;7.116;2024-01-06T08:27:32;21.23;;;11.13;;
5333;SDS011;2689;50.954;7.116;2024-01-06T08:30:00;21.40;;;12.73;;
5333;SDS011;2689;50.954;7.116;2024-01-06T08:32:27;22.43;;;12.53;;
5333;SDS011;2689;50.954;7.116;2024-01-06T08:34:55;16.10;;;10.67;;
5333;SDS011;2689;50.954;7.116;2024-01-06T08:37:22;21.77;;;12.87;;
5333;SDS011;2689;50.954;7.116;2024-01-06T08:42:23;23.10;;;13.70;;
5333;SDS011;2689;50.954;7.116;2024-01-06T08:44:52;20.43;;;13.00;;
5333;SDS011;2689;50.954;7.116;2024-01-06T08:47:19;20.70;;;13.20;;
5333;SDS011;2689;50.954;7.116;2024-01-06T08:49:46;20.73;;;13.10;;
5333;SDS011;2689;50.954;7.116;2024-01-06T08:52:13;19.83;;;12.80;;
5333;SDS011;2689;50.954;7.116;2024-01-06T08:54:42;20.63;;;12.97;;
5333;SDS011;2689;50.954;7.116;2024-01-06T08:57:12;16.73;;;11.03;;
5333;SDS011;2689;50.954;7.116;2024-01-06T08:59:41;20.33;;;12.67;;
5333;SDS011;2689;50.954;7.116;2024-01-06T09:02:10;17.20;;;11.40;;
5333;SDS011;2689;50.954;7.116;2024-01-06T09:04:37;18.57;;;11.90;;
5333;SDS011;2689;50.954;7.116;2024-01-06T09:07:04;19.07;;;12.63;;
5333;SDS011;2689;50.954;7.116;2024-01-06T09:09:34;20.63;;;12.57;;
5333;SDS011;2689;50.954;7.116;2024-01-06T09:12:01;21.83;;;14.67;;
5333;SDS011;2689;50.954;7.116;2024-01-06T09:14:30;16.43;;;11.60;;
5333;SDS011;2689;50.954;7.116;2024-01-06T09:16:58;19.53;;;11.90;;
5333;SDS011;2689;50.954;7.116;2024-01-06T09:19:25;19.20;;;11.43;;
5333;SDS011;2689;50.954;7.116;2024-01-06T09:21:53;16.97;;;11.50;;
5333;SDS011;2689;50.954;7.116;2024-01-06T09:24:21;17.97;;;11.27;;
5333;SDS011;2689;50.954;7.116;2024-01-06T09:26:48;18.57;;;11.70;;
5333;SDS011;2689;50.954;7.116;2024-01-06T09:29:16;21.27;;;13.30;;
5333;SDS011;2689;50.954;7.116;2024-01-06T09:31:46;17.77;;;12.20;;
5333;SDS011;2689;50.954;7.116;2024-01-06T09:34:13;21.27;;;13.80;;
5333;SDS011;2689;50.954;7.116;2024-01-06T09:36:41;19.70;;;12.90;;
5333;SDS011;2689;50.954;7.116;2024-01-06T09:39:08;21.47;;;14.10;;
5333;SDS011;2689;50.954;7.116;2024-01-06T09:41:35;18.37;;;11.67;;
5333;SDS011;2689;50.954;7.116;2024-01-06T09:44:02;18.33;;;9.33;;
5333;SDS011;2689;50.954;7.116;2024-01-06T09:46:30;15.67;;;10.57;;
5333;SDS011;2689;50.954;7.116;2024-01-06T09:49:05;17.13;;;9.77;;
5333;SDS011;2689;50.954;7.116;2024-01-06T09:51:34;18.10;;;10.70;;
5333;SDS011;2689;50.954;7.116;2024-01-06T09:56:50;18.47;;;11.43;;
5333;SDS011;2689;50.954;7.116;2024-01-06T09:59:18;21.07;;;12.77;;
5333;SDS011;2689;50.954;7.116;2024-01-06T10:01:45;26.50;;;13.17;;
5333;SDS011;2689;50.954;7.116;2024-01-06T10:04:16;19.53;;;12.63;;
5333;SDS011;2689;50.954;7.116;2024-01-06T10:06:42;22.60;;;13.20;;
5333;SDS011;2689;50.954;7.116;2024-01-06T10:09:15;26.27;;;12.90;;
5333;SDS011;2689;50.954;7.116;2024-01-06T10:11:43;15.50;;;9.70;;
5333;SDS011;2689;50.954;7.116;2024-01-06T10:14:12;15.87;;;8.27;;
5333;SDS011;2689;50.954;7.116;2024-01-06T10:16:44;16.33;;;10.37;;
5333;SDS011;2689;50.954;7.116;2024-01-06T10:19:16;14.43;;;9.13;;
5333;SDS011;2689;50.954;7.116;2024-01-06T10:21:43;16.70;;;10.87;;
5333;SDS011;2689;50.954;7.116;2024-01-06T10:24:18;16.80;;;10.97;;
5333;SDS011;2689;50.954;7.116;2024-01-06T10:26:51;19.43;;;11.43;;
5333;SDS011;2689;50.954;7.116;2024-01-06T10:29:19;20.77;;;12.90;;
5333;SDS011;2689;50.954;7.116;2024-01-06T10:31:46;21.80;;;13.17;;
5333;SDS011;2689;50.954;7.116;2024-01-06T10:34:15;19.87;;;11.67;;
5333;SDS011;2689;50.954;7.116;2024-01-06T10:36:43;22.03;;;11.50;;
5333;SDS011;2689;50.954;7.116;2024-01-06T10:39:10;20.27;;;13.13;;
5333;SDS011;2689;50.954;7.116;2024-01-06T10:41:40;24.90;;;15.90;;
5333;SDS011;2689;50.954;7.116;2024-01-06T10:44:09;26.53;;;15.70;;
5333;SDS011;2689;50.954;7.116;2024-01-06T10:46:38;18.70;;;11.70;;
5333;SDS011;2689;50.954;7.116;2024-01-06T10:49:07;19.07;;;12.10;;
5333;SDS011;2689;50.954;7.116;2024-01-06T10:51:37;20.20;;;12.20;;
5333;SDS011;2689;50.954;7.116;2024-01-06T10:54:08;19.10;;;13.20;;
5333;SDS011;2689;50.954;7.116;2024-01-06T10:56:38;27.93;;;14.10;;
5333;SDS011;2689;50.954;7.116;2024-01-06T10:59:08;18.43;;;12.10;;
5333;SDS011;2689;50.954;7.116;2024-01-06T11:01:38;20.53;;;12.20;;
5333;SDS011;2689;50.954;7.116;2024-01-06T11:04:13;18.02;;;11.15;;
5333;SDS011;2689;50.954;7.116;2024-01-06T11:06:56;17.70;;;10.60;;
5333;SDS011;2689;50.954;7.116;2024-01-06T11:09:24;19.50;;;11.67;;
5333;SDS011;2689;50.954;7.116;2024-01-06T11:11:58;18.30;;;10.93;;
5333;SDS011;2689;50.954;7.116;2024-01-06T11:14:27;18.87;;;13.47;;
5333;SDS011;2689;50.954;7.116;2024-01-06T11:16:54;18.20;;;10.93;;
5333;SDS011;2689;50.954;7.116;2024-01-06T11:22:40;15.10;;;10.20;;
5333;SDS011;2689;50.954;7.116;2024-01-06T11:25:07;15.90;;;9.70;;
5333;SDS011;2689;50.954;7.116;2024-01-06T11:27:38;15.47;;;10.43;;
5333;SDS011;2689;50.954;7.116;2024-01-06T11:30:05;17.67;;;11.03;;
5333;SDS011;2689;50.954;7.116;2024-01-06T11:32:35;19.77;;;12.60;;
5333;SDS011;2689;50.954;7.116;2024-01-06T11:35:06;18.43;;;12.90;;
5333;SDS011;2689;50.954;7.116;2024-01-06T11:37:35;23.93;;;15.40;;
5333;SDS011;2689;50.954;7.116;2024-01-06T11:40:07;23.20;;;14.70;;
5333;SDS011;2689;50.954;7.116;2024-01-06T11:42:40;27.83;;;16.67;;
5333;SDS011;2689;50.954;7.116;2024-01-06T11:45:20;23.00;;;14.97;;
5333;SDS011;2689;50.954;7.116;2024-01-06T11:47:50;25.53;;;16.17;;
5333;SDS011;2689;50.954;7.116;2024-01-06T11:50:21;29.00;;;17.73;;
5333;SDS011;2689;50.954;7.116;2024-01-06T11:52:48;30.43;;;17.33;;
5333;SDS011;2689;50.954;7.116;2024-01-06T11:55:22;35.87;;;18.27;;
5333;SDS011;2689;50.954;7.116;2024-01-06T11:57:52;25.90;;;15.53;;
5333;SDS011;2689;50.954;7.116;2024-01-06T12:00:20;25.83;;;16.50;;
5333;SDS011;2689;50.954;7.116;2024-01-06T12:02:49;30.50;;;15.23;;
5333;SDS011;2689;50.954;7.116;2024-01-06T12:05:17;29.77;;;17.30;;
5333;SDS011;2689;50.954;7.116;2024-01-06T12:07:54;28.03;;;17.10;;
5333;SDS011;2689;50.954;7.116;2024-01-06T12:10:29;27.20;;;16.60;;
5333;SDS011;2689;50.954;7.116;2024-01-06T12:13:01;29.90;;;17.67;;
5333;SDS011;2689;50.954;7.116;2024-01-06T12:15:36;26.53;;;15.53;;
5333;SDS011;2689;50.954;7.116;2024-01-06T12:18:05;25.70;;;14.87;;
5333;SDS011;2689;50.954;7.116;2024-01-06T12:20:32;23.17;;;14.17;;
5333;SDS011;2689;50.954;7.116;2024-01-06T12:23:03;26.77;;;15.53;;
5333;SDS011;2689;50.954;7.116;2024-01-06T12:25:53;27.53;;;16.30;;
5333;SDS011;2689;50.954;7.116;2024-01-06T12:28:19;29.03;;;15.53;;
5333;SDS011;2689;50.954;7.116;2024-01-06T12:30:49;28.87;;;17.10;;
5333;SDS011;2689;50.954;7.116;2024-01-06T12:33:31;31.57;;;16.83;;
5333;SDS011;2689;50.954;7.116;2024-01-06T12:36:04;29.20;;;18.90;;
5333;SDS011;2689;50.954;7.116;2024-01-06T12:38:33;31.17;;;18.20;;
5333;SDS011;2689;50.954;7.116;2024-01-06T12:41:03;29.63;;;16.00;;
5333;SDS011;2689;50.954;7.116;2024-01-06T12:43:32;32.67;;;17.07;;
5333;SDS011;2689;50.954;7.116;2024-01-06T12:46:01;27.73;;;15.97;;
5333;SDS011;2689;50.954;7.116;2024-01-06T12:48:30;24.90;;;15.00;;
5333;SDS011;2689;50.954;7.116;2024-01-06T12:50:57;31.87;;;18.10;;
5333;SDS011;2689;50.954;7.116;2024-01-06T12:53:23;26.43;;;16.00;;
5333;SDS011;2689;50.954;7.116;2024-01-06T12:55:51;24.10;;;15.10;;
5333;SDS011;2689;50.954;7.116;2024-01-06T12:58:21;26.40;;;15.03;;
5333;SDS011;2689;50.954;7.116;2024-01-06T13:00:50;28.97;;;16.10;;
5333;SDS011;2689;50.954;7.116;2024-01-06T13:03:17;25.50;;;14.70;;
5333;SDS011;2689;50.954;7.116;2024-01-06T13:05:44;25.70;;;14.37;;
5333;SDS011;2689;50.954;7.116;2024-01-06T13:08:13;23.80;;;14.27;;
5333;SDS011;2689;50.954;7.116;2024-01-06T13:10:40;25.40;;;13.80;;
5333;SDS011;2689;50.954;7.116;2024-01-06T13:13:08;25.53;;;15.27;;
5333;SDS011;2689;50.954;7.116;2024-01-06T13:15:37;26.90;;;14.70;;
5333;SDS011;2689;50.954;7.116;2024-01-06T13:18:05;25.90;;;16.30;;
5333;SDS011;2689;50.954;7.116;2024-01-06T13:20:45;26.63;;;15.57;;
5333;SDS011;2689;50.954;7.116;2024-01-06T13:23:18;31.80;;;16.83;;
5333;SDS011;2689;50.954;7.116;2024-01-06T13:25:45;32.53;;;18.67;;
5333;SDS011;2689;50.954;7.116;2024-01-06T13:28:12;25.27;;;14.90;;
5333;SDS011;2689;50.954;7.116;2024-01-06T13:30:40;26.57;;;15.87;;
5333;SDS011;2689;50.954;7.116;2024-01-06T13:33:07;25.43;;;15.97;;
5333;SDS011;2689;50.954;7.116;2024-01-06T13:35:35;27.10;;;15.83;;
5333;SDS011;2689;50.954;7.116;2024-01-06T13:38:02;31.47;;;18.03;;
5333;SDS011;2689;50.954;7.116;2024-01-06T13:40:30;29.53;;;16.90;;
5333;SDS011;2689;50.954;7.116;2024-01-06T13:42:57;27.77;;;17.27;;
5333;SDS011;2689;50.954;7.116;2024-01-06T13:45:25;28.37;;;17.43;;
5333;SDS011;2689;50.954;7.116;2024-01-06T13:47:53;31.37;;;19.80;;
5333;SDS011;2689;50.954;7.116;2024-01-06T13:50:20;36.97;;;24.57;;
5333;SDS011;2689;50.954;7.116;2024-01-06T13:52:46;32.90;;;21.20;;
5333;SDS011;2689;50.954;7.116;2024-01-06T13:55:14;33.63;;;20.80;;
5333;SDS011;2689;50.954;7.116;2024-01-06T13:57:41;34.00;;;21.20;;
5333;SDS011;2689;50.954;7.116;2024-01-06T14:00:08;40.40;;;24.10;;
5333;SDS011;2689;50.954;7.116;2024-01-06T14:02:35;57.50;;;32.50;;
5333;SDS011;2689;50.954;7.116;2024-01-06T14:05:04;33.30;;;21.60;;
5333;SDS011;2689;50.954;7.116;2024-01-06T14:07:33;30.40;;;19.60;;
5333;SDS011;2689;50.954;7.116;2024-01-06T14:10:00;31.77;;;18.83;;
5333;SDS011;2689;50.954;7.116;2024-01-06T14:12:28;28.50;;;17.57;;
5333;SDS011;2689;50.954;7.116;2024-01-06T14:14:56;34.43;;;20.30;;
5333;SDS011;2689;50.954;7.116;2024-01-06T14:17:23;38.13;;;19.53;;
5333;SDS011;2689;50.954;7.116;2024-01-06T14:19:50;29.50;;;19.43;;
5333;SDS011;2689;50.954;7.116;2024-01-06T14:22:18;35.20;;;20.80;;
5333;SDS011;2689;50.954;7.116;2024-01-06T14:24:45;31.70;;;19.30;;
5333;SDS011;2689;50.954;7.116;2024-01-06T14:27:13;32.00;;;19.47;;
5333;SDS011;2689;50.954;7.116;2024-01-06T14:29:40;36.70;;;20.80;;
5333;SDS011;2689;50.954;7.116;2024-01-06T14:32:07;35.80;;;21.20;;
5333;SDS011;2689;50.954;7.116;2024-01-06T14:34:34;29.30;;;20.60;;
5333;SDS011;2689;50.954;7.116;2024-01-06T14:37:01;29.57;;;15.80;;
5333;SDS011;2689;50.954;7.116;2024-01-06T14:39:29;32.77;;;20.57;;
5333;SDS011;2689;50.954;7.116;2024-01-06T14:41:55;30.17;;;18.20;;
5333;SDS011;2689;50.954;7.116;2024-01-06T14:44:22;36.10;;;20.83;;
5333;SDS011;2689;50.954;7.116;2024-01-06T14:46:52;28.47;;;18.00;;
5333;SDS011;2689;50.954;7.116;2024-01-06T14:49:18;30.37;;;18.53;;
5333;SDS011;2689;50.954;7.116;2024-01-06T14:51:45;33.30;;;18.60;;
5333;SDS011;2689;50.954;7.116;2024-01-06T14:54:12;33.73;;;19.90;;
5333;SDS011;2689;50.954;7.116;2024-01-06T14:56:41;35.50;;;20.37;;
5333;SDS011;2689;50.954;7.116;2024-01-06T14:59:08;35.27;;;21.10;;
5333;SDS011;2689;50.954;7.116;2024-01-06T15:01:37;33.40;;;20.40;;
5333;SDS011;2689;50.954;7.116;2024-01-06T15:04:03;38.90;;;21.67;;
5333;SDS011;2689;50.954;7.116;2024-01-06T15:06:30;40.00;;;22.47;;
5333;SDS011;2689;50.954;7.116;2024-01-06T15:08:57;36.77;;;22.23;;